Time;durP1;ratioP1;P1;durP2;ratioP2;P2;SDS_P1;SDS_P2;PMS_P1;PMS_P2;Temp;Humidity;BMP_temperature;BMP_pressure;BME280_temperature;BME280_humidity;BME280_pressure;Samples;Min_cycle;Max_cycle;Signal;HPM_P1;HPM_P2
2021/01/27 00:00:19;;;;;;;15.38;8.82;;;;;;;;;;5085568;28;20033;-76
2021/01/27 00:02:45;;;;;;;13.65;8.85;;;;;;;;;;5087248;28;20390;-78
2021/01/27 00:05:14;;;;;;;15.10;8.68;;;;;;;;;;5085963;28;20439;-76
2021/01/27 00:07:40;;;;;;;18.40;10.55;;;;;;;;;;5072829;28;20024;-77
2021/01/27 00:10:07;;;;;;;18.13;9.30;;;;;;;;;;5085576;28;20725;-76
2021/01/27 00:12:34;;;;;;;15.93;8.63;;;;;;;;;;5070996;28;20475;-76
2021/01/27 00:15:00;;;;;;;17.07;9.33;;;;;;;;;;5065564;28;20040;-76
2021/01/27 00:17:27;;;;;;;21.70;8.60;;;;;;;;;;5066257;28;20021;-76
2021/01/27 00:19:53;;;;;;;14.60;8.10;;;;;;;;;;5066215;28;20036;-80
2021/01/27 00:22:19;;;;;;;14.02;8.90;;;;;;;;;;5066182;28;20028;-75
2021/01/27 00:24:45;;;;;;;17.60;9.32;;;;;;;;;;5065392;28;20029;-77
2021/01/27 00:27:10;;;;;;;15.43;8.10;;;;;;;;;;5079422;28;20442;-76
2021/01/27 00:29:36;;;;;;;16.13;8.10;;;;;;;;;;5087937;28;20099;-76
2021/01/27 00:32:03;;;;;;;12.73;7.65;;;;;;;;;;5085637;28;20466;-78
2021/01/27 00:34:28;;;;;;;13.80;7.70;;;;;;;;;;5085455;28;20328;-77
2021/01/27 00:36:54;;;;;;;11.68;8.07;;;;;;;;;;5087418;28;20024;-77
2021/01/27 00:39:20;;;;;;;12.48;7.75;;;;;;;;;;5087419;28;20028;-76
2021/01/27 00:41:46;;;;;;;14.32;7.60;;;;;;;;;;5073576;28;20466;-76
2021/01/27 00:44:12;;;;;;;13.50;8.02;;;;;;;;;;5067615;28;20032;-79
2021/01/27 00:46:38;;;;;;;15.15;8.45;;;;;;;;;;5064836;28;20033;-78
2021/01/27 00:49:04;;;;;;;15.13;8.50;;;;;;;;;;5065702;28;20032;-76
2021/01/27 00:51:30;;;;;;;13.90;8.73;;;;;;;;;;5066678;28;20024;-75
2021/01/27 00:53:56;;;;;;;16.83;8.98;;;;;;;;;;5065458;28;20078;-79
2021/01/27 00:56:23;;;;;;;13.30;8.07;;;;;;;;;;5066510;28;20086;-76
2021/01/27 00:58:49;;;;;;;12.60;8.10;;;;;;;;;;5065871;28;20153;-76
2021/01/27 01:01:15;;;;;;;16.52;7.90;;;;;;;;;;5064707;28;20416;-76
2021/01/27 01:03:41;;;;;;;11.57;7.15;;;;;;;;;;5065562;28;20040;-78
2021/01/27 01:06:07;;;;;;;11.63;7.22;;;;;;;;;;5065024;28;20029;-75
2021/01/27 01:08:33;;;;;;;15.48;8.02;;;;;;;;;;5066814;28;20024;-77
2021/01/27 01:11:00;;;;;;;15.07;7.95;;;;;;;;;;5072844;28;20028;-77
2021/01/27 01:13:27;;;;;;;14.73;7.95;;;;;;;;;;5086073;28;20020;-76
2021/01/27 01:15:54;;;;;;;14.95;7.78;;;;;;;;;;5084460;28;20028;-76
2021/01/27 01:18:20;;;;;;;14.88;8.40;;;;;;;;;;5085912;28;20489;-77
2021/01/27 01:20:50;;;;;;;16.48;7.72;;;;;;;;;;5087683;28;20155;-77
2021/01/27 01:23:17;;;;;;;14.55;8.13;;;;;;;;;;5089772;28;20199;-78
2021/01/27 01:25:43;;;;;;;11.32;6.68;;;;;;;;;;5089063;28;20036;-78
2021/01/27 01:28:09;;;;;;;13.25;7.10;;;;;;;;;;5089869;28;20052;-78
2021/01/27 01:30:36;;;;;;;10.82;6.97;;;;;;;;;;5090762;28;20382;-78
2021/01/27 01:33:07;;;;;;;13.02;6.80;;;;;;;;;;5089552;28;20346;-78
2021/01/27 01:35:33;;;;;;;11.25;7.30;;;;;;;;;;5089190;28;20032;-77
2021/01/27 01:37:59;;;;;;;11.40;7.07;;;;;;;;;;5089790;28;20784;-78
2021/01/27 01:40:27;;;;;;;12.52;6.22;;;;;;;;;;5074670;28;20112;-74
2021/01/27 01:43:07;;;;;;;11.65;6.80;;;;;;;;;;5069437;28;20051;-77
2021/01/27 01:45:35;;;;;;;11.73;6.47;;;;;;;;;;5068110;28;20031;-76
2021/01/27 01:48:05;;;;;;;12.90;7.32;;;;;;;;;;5069173;28;20123;-76
2021/01/27 01:50:31;;;;;;;13.68;7.00;;;;;;;;;;5068952;28;20024;-77
2021/01/27 01:52:57;;;;;;;13.32;7.45;;;;;;;;;;5070479;28;20043;-75
2021/01/27 01:55:23;;;;;;;16.80;8.32;;;;;;;;;;5068211;28;20024;-78
2021/01/27 01:57:50;;;;;;;17.60;8.10;;;;;;;;;;5070615;28;20116;-76
2021/01/27 02:00:17;;;;;;;14.60;7.97;;;;;;;;;;5070001;28;20215;-75
2021/01/27 02:02:44;;;;;;;13.75;8.05;;;;;;;;;;5068515;28;20117;-77
2021/01/27 02:05:13;;;;;;;14.68;8.07;;;;;;;;;;5068125;28;20039;-76
2021/01/27 02:07:39;;;;;;;13.13;8.60;;;;;;;;;;5068554;28;20043;-78
2021/01/27 02:10:06;;;;;;;13.73;8.40;;;;;;;;;;5068829;28;20031;-76
2021/01/27 02:12:32;;;;;;;14.95;8.65;;;;;;;;;;5081595;28;20027;-78
2021/01/27 02:15:13;;;;;;;13.02;8.00;;;;;;;;;;5089109;28;20032;-75
2021/01/27 02:17:48;;;;;;;14.82;8.13;;;;;;;;;;5089643;28;20028;-77
2021/01/27 02:20:14;;;;;;;15.15;7.68;;;;;;;;;;5088126;28;20027;-76
2021/01/27 02:22:48;;;;;;;11.88;7.15;;;;;;;;;;5088574;28;20024;-78
2021/01/27 02:25:28;;;;;;;12.38;7.05;;;;;;;;;;5089330;28;20028;-75
2021/01/27 02:27:56;;;;;;;11.32;6.72;;;;;;;;;;5089869;28;20054;-76
2021/01/27 02:30:22;;;;;;;;;;;;;;;;;;5069858;28;20086;-78
2021/01/27 02:32:54;;;;;;;13.82;7.13;;;;;;;;;;5068500;28;19909;-76
2021/01/27 02:35:29;;;;;;;11.77;6.93;;;;;;;;;;5067910;28;20032;-78
2021/01/27 02:38:00;;;;;;;13.98;7.60;;;;;;;;;;5067703;28;20028;-77
2021/01/27 02:40:33;;;;;;;13.77;7.57;;;;;;;;;;5068190;28;20382;-75
2021/01/27 02:43:03;;;;;;;13.25;7.70;;;;;;;;;;5067942;28;20017;-76
2021/01/27 02:45:34;;;;;;;15.40;8.38;;;;;;;;;;5067303;28;20025;-75
2021/01/27 02:48:08;;;;;;;11.13;7.22;;;;;;;;;;5069215;28;20426;-77
2021/01/27 02:50:52;;;;;;;12.02;7.65;;;;;;;;;;5075226;28;20028;-76
2021/01/27 02:53:20;;;;;;;13.45;7.63;;;;;;;;;;5084764;28;20023;-76
2021/01/27 02:55:52;;;;;;;13.55;7.57;;;;;;;;;;5085169;28;20032;-76
2021/01/27 02:58:22;;;;;;;11.38;7.10;;;;;;;;;;5093132;28;20085;-77
2021/01/27 03:00:52;;;;;;;12.80;7.30;;;;;;;;;;5088355;28;20059;-77
2021/01/27 03:03:27;;;;;;;12.38;7.50;;;;;;;;;;5090009;28;20508;-77
2021/01/27 03:05:56;;;;;;;13.55;7.57;;;;;;;;;;5089244;28;20024;-77
2021/01/27 03:08:25;;;;;;;11.55;7.60;;;;;;;;;;5091479;28;20020;-76
2021/01/27 03:11:09;;;;;;;16.35;7.95;;;;;;;;;;5090318;28;20077;-77
2021/01/27 03:13:37;;;;;;;12.85;7.55;;;;;;;;;;5089827;28;20036;-77
2021/01/27 03:16:06;;;;;;;16.20;8.43;;;;;;;;;;5089886;28;20393;-76
2021/01/27 03:18:34;;;;;;;12.80;7.15;;;;;;;;;;5089994;28;20035;-77
2021/01/27 03:21:03;;;;;;;12.57;7.40;;;;;;;;;;5089642;28;20036;-78
2021/01/27 03:23:35;;;;;;;10.45;6.47;;;;;;;;;;5090072;28;20536;-75
2021/01/27 03:26:07;;;;;;;13.40;7.32;;;;;;;;;;5089521;28;20063;-75
2021/01/27 03:28:37;;;;;;;12.77;8.00;;;;;;;;;;5089472;28;20016;-76
2021/01/27 03:31:03;;;;;;;10.93;6.53;;;;;;;;;;5091215;28;20398;-77
2021/01/27 03:33:36;;;;;;;13.02;6.57;;;;;;;;;;5089905;28;20024;-78
2021/01/27 03:36:04;;;;;;;11.65;6.78;;;;;;;;;;5089496;28;20054;-78
2021/01/27 03:38:38;;;;;;;12.75;7.50;;;;;;;;;;5089969;28;20036;-76
2021/01/27 03:41:18;;;;;;;11.15;6.88;;;;;;;;;;5090787;28;20048;-75
2021/01/27 03:43:51;;;;;;;16.50;7.70;;;;;;;;;;5089386;28;20031;-76
2021/01/27 03:46:27;;;;;;;12.63;6.32;;;;;;;;;;5088526;28;20036;-76
2021/01/27 03:49:03;;;;;;;10.13;5.82;;;;;;;;;;5090980;28;20099;-77
2021/01/27 03:51:30;;;;;;;10.10;6.47;;;;;;;;;;5089169;28;20042;-78
2021/01/27 03:54:00;;;;;;;11.07;6.35;;;;;;;;;;5090914;28;20615;-75
2021/01/27 03:56:32;;;;;;;11.52;6.55;;;;;;;;;;5089258;28;20035;-76
2021/01/27 03:58:58;;;;;;;11.98;6.32;;;;;;;;;;5088925;28;20076;-75
2021/01/27 04:01:24;;;;;;;13.05;5.85;;;;;;;;;;5088474;28;20482;-75
2021/01/27 04:03:51;;;;;;;13.30;5.40;;;;;;;;;;5093861;28;20028;-79
2021/01/27 04:06:17;;;;;;;8.23;5.55;;;;;;;;;;5098554;28;20406;-76
2021/01/27 04:08:43;;;;;;;11.75;5.45;;;;;;;;;;5107735;28;20486;-76
2021/01/27 04:11:10;;;;;;;11.65;4.90;;;;;;;;;;5106565;28;20069;-76
2021/01/27 04:13:36;;;;;;;9.27;4.88;;;;;;;;;;5106686;28;20015;-79
2021/01/27 04:16:02;;;;;;;11.43;6.30;;;;;;;;;;5108111;28;20557;-75
2021/01/27 04:18:29;;;;;;;8.63;5.43;;;;;;;;;;5065829;28;20024;-74
2021/01/27 04:20:55;;;;;;;8.57;5.22;;;;;;;;;;5065901;28;20119;-76
2021/01/27 04:23:21;;;;;;;8.57;4.95;;;;;;;;;;5065943;28;20024;-79
2021/01/27 04:25:48;;;;;;;9.77;5.10;;;;;;;;;;5065740;28;20052;-79
2021/01/27 04:28:14;;;;;;;11.13;5.40;;;;;;;;;;5065514;28;20022;-78
2021/01/27 04:30:40;;;;;;;9.98;5.00;;;;;;;;;;5065971;28;20114;-78
2021/01/27 04:33:08;;;;;;;9.38;4.82;;;;;;;;;;5081831;28;20046;-76
2021/01/27 04:35:35;;;;;;;7.15;4.60;;;;;;;;;;5082080;28;20074;-76
2021/01/27 04:38:01;;;;;;;7.50;4.13;;;;;;;;;;5083131;28;20060;-76
2021/01/27 04:40:29;;;;;;;10.40;4.88;;;;;;;;;;5082757;28;20092;-78
2021/01/27 04:42:55;;;;;;;7.45;4.65;;;;;;;;;;5067153;28;20028;-77
2021/01/27 04:45:22;;;;;;;8.38;4.72;;;;;;;;;;5082418;28;20082;-77
2021/01/27 04:47:58;;;;;;;10.63;5.10;;;;;;;;;;5082672;28;20025;-76
2021/01/27 04:50:31;;;;;;;7.17;4.53;;;;;;;;;;5082523;28;20024;-76
2021/01/27 04:53:12;;;;;;;8.23;4.90;;;;;;;;;;5066915;28;20480;-76
2021/01/27 04:55:44;;;;;;;8.50;4.97;;;;;;;;;;5081634;28;20394;-75
2021/01/27 04:58:13;;;;;;;29.55;14.90;;;;;;;;;;5082372;28;20561;-77
2021/01/27 05:00:50;;;;;;;17.92;9.88;;;;;;;;;;5074992;28;20028;-76
2021/01/27 05:03:42;;;;;;;17.50;10.07;;;;;;;;;;5086304;28;20170;-79
2021/01/27 05:06:12;;;;;;;14.93;7.72;;;;;;;;;;5047492;28;20040;-75
2021/01/27 05:08:45;;;;;;;10.52;6.05;;;;;;;;;;5086334;28;20121;-78
2021/01/27 05:11:14;;;;;;;9.43;5.57;;;;;;;;;;5085576;28;20078;-76
2021/01/27 05:13:41;;;;;;;8.05;4.82;;;;;;;;;;5085925;28;20031;-77
2021/01/27 05:16:10;;;;;;;11.90;5.28;;;;;;;;;;5073058;28;20064;-77
2021/01/27 05:18:36;;;;;;;8.98;4.97;;;;;;;;;;5066195;28;20463;-77
2021/01/27 05:21:02;;;;;;;8.75;4.85;;;;;;;;;;5065627;28;20704;-77
2021/01/27 05:23:28;;;;;;;10.05;4.60;;;;;;;;;;5067097;28;20035;-76
2021/01/27 05:26:01;;;;;;;8.77;5.10;;;;;;;;;;5095204;28;20466;-76
2021/01/27 05:28:30;;;;;;;9.80;5.40;;;;;;;;;;5098042;28;20048;-78
2021/01/27 05:30:57;;;;;;;8.10;5.00;;;;;;;;;;5086076;28;20021;-78
2021/01/27 05:33:41;;;;;;;9.27;5.20;;;;;;;;;;5086804;28;20034;-78
2021/01/27 05:36:08;;;;;;;9.32;5.35;;;;;;;;;;5085141;28;20092;-77
2021/01/27 05:38:34;;;;;;;8.40;5.03;;;;;;;;;;5085914;28;20032;-77
2021/01/27 05:41:19;;;;;;;10.10;5.78;;;;;;;;;;5086662;28;20024;-76
2021/01/27 05:43:47;;;;;;;10.52;5.50;;;;;;;;;;5085846;28;20122;-76
2021/01/27 05:46:28;;;;;;;9.77;5.63;;;;;;;;;;5086601;28;20047;-75
2021/01/27 05:48:55;;;;;;;7.53;5.15;;;;;;;;;;5085235;28;20039;-76
2021/01/27 05:51:35;;;;;;;10.70;4.97;;;;;;;;;;5086743;28;20024;-75
2021/01/27 05:54:02;;;;;;;7.82;4.55;;;;;;;;;;5085192;28;20020;-76
2021/01/27 05:56:28;;;;;;;8.70;5.30;;;;;;;;;;5084771;28;20051;-76
2021/01/27 05:58:56;;;;;;;8.50;5.03;;;;;;;;;;5079193;28;20506;-76
2021/01/27 06:01:28;;;;;;;7.45;4.80;;;;;;;;;;5065393;28;20273;-75
2021/01/27 06:03:54;;;;;;;9.48;4.57;;;;;;;;;;5064870;28;20027;-77
2021/01/27 06:06:20;;;;;;;9.57;5.10;;;;;;;;;;5065738;28;20029;-78
2021/01/27 06:08:48;;;;;;;10.20;4.88;;;;;;;;;;5066602;28;20388;-78
2021/01/27 06:11:14;;;;;;;8.75;5.05;;;;;;;;;;5069601;28;20024;-77
2021/01/27 06:13:40;;;;;;;9.35;5.32;;;;;;;;;;5068570;28;20075;-77
2021/01/27 06:16:16;;;;;;;9.57;5.10;;;;;;;;;;5069627;28;20035;-76
2021/01/27 06:18:42;;;;;;;7.93;4.80;;;;;;;;;;5068320;28;20017;-80
2021/01/27 06:21:26;;;;;;;8.05;5.07;;;;;;;;;;5068591;28;20359;-75
2021/01/27 06:24:11;;;;;;;7.72;4.22;;;;;;;;;;5069041;28;20561;-78
2021/01/27 06:26:46;;;;;;;8.55;4.70;;;;;;;;;;5067708;28;20375;-77
2021/01/27 06:29:31;;;;;;;12.02;5.07;;;;;;;;;;5068551;28;20041;-77
2021/01/27 06:32:12;;;;;;;13.35;4.78;;;;;;;;;;5070177;28;20016;-76
2021/01/27 06:34:52;;;;;;;8.70;4.80;;;;;;;;;;5068828;28;20031;-77
2021/01/27 06:37:25;;;;;;;9.07;4.70;;;;;;;;;;5069777;28;20036;-77
2021/01/27 06:39:57;;;;;;;9.15;4.60;;;;;;;;;;5068267;28;20024;-75
2021/01/27 06:42:39;;;;;;;7.97;4.30;;;;;;;;;;5068391;28;20029;-79
2021/01/27 06:45:05;;;;;;;8.98;4.32;;;;;;;;;;5069080;28;20040;-77
2021/01/27 06:47:50;;;;;;;9.52;4.50;;;;;;;;;;5068331;28;20422;-76
2021/01/27 06:50:34;;;;;;;7.55;4.78;;;;;;;;;;5068349;28;20108;-75
2021/01/27 06:53:19;;;;;;;7.65;4.10;;;;;;;;;;5068160;28;20020;-76
2021/01/27 06:55:59;;;;;;;9.38;4.68;;;;;;;;;;5068462;28;20020;-77
2021/01/27 06:58:44;;;;;;;8.70;4.65;;;;;;;;;;5068083;28;20126;-78
2021/01/27 07:01:19;;;;;;;10.48;5.10;;;;;;;;;;5074778;28;20024;-75
2021/01/27 07:04:08;;;;;;;11.00;5.07;;;;;;;;;;5087740;28;20075;-76
2021/01/27 07:06:52;;;;;;;12.88;4.72;;;;;;;;;;5086667;28;20450;-78
2021/01/27 07:09:25;;;;;;;10.10;4.30;;;;;;;;;;5088244;28;20044;-77
2021/01/27 07:12:11;;;;;;;10.02;4.57;;;;;;;;;;5087717;28;20023;-74
2021/01/27 07:14:46;;;;;;;11.07;4.68;;;;;;;;;;5088867;28;20024;-76
2021/01/27 07:17:15;;;;;;;7.57;4.30;;;;;;;;;;5087740;28;20058;-77
2021/01/27 07:19:44;;;;;;;9.43;4.13;;;;;;;;;;5087707;28;20103;-77
2021/01/27 07:22:27;;;;;;;8.65;4.50;;;;;;;;;;5087916;28;20016;-75
2021/01/27 07:25:12;;;;;;;8.07;4.80;;;;;;;;;;5086823;28;20035;-77
2021/01/27 07:27:44;;;;;;;9.30;5.40;;;;;;;;;;5073251;28;20021;-77
2021/01/27 07:30:13;;;;;;;11.75;5.22;;;;;;;;;;5067177;28;20115;-77
2021/01/27 07:32:53;;;;;;;11.85;6.30;;;;;;;;;;5067401;28;20024;-75
2021/01/27 07:35:19;;;;;;;12.23;6.35;;;;;;;;;;5066777;28;20029;-76
2021/01/27 07:37:58;;;;;;;14.32;7.35;;;;;;;;;;5067200;28;20035;-75
2021/01/27 07:40:28;;;;;;;14.23;7.43;;;;;;;;;;5068187;28;20097;-77
2021/01/27 07:42:57;;;;;;;23.13;8.25;;;;;;;;;;5067004;28;20034;-76
2021/01/27 07:45:29;;;;;;;14.77;7.35;;;;;;;;;;5066468;28;20025;-75
2021/01/27 07:47:55;;;;;;;11.50;6.47;;;;;;;;;;5068211;28;20028;-78
2021/01/27 07:50:22;;;;;;;9.93;6.25;;;;;;;;;;5066740;28;20104;-77
2021/01/27 07:52:51;;;;;;;13.50;6.18;;;;;;;;;;5066967;28;20047;-76
2021/01/27 07:55:29;;;;;;;13.52;6.72;;;;;;;;;;5065625;28;20448;-79
2021/01/27 07:57:55;;;;;;;10.25;6.10;;;;;;;;;;5066618;28;20379;-80
2021/01/27 08:00:30;;;;;;;10.13;5.47;;;;;;;;;;5066812;28;20035;-78
2021/01/27 08:03:13;;;;;;;10.68;5.88;;;;;;;;;;5066213;28;20025;-75
2021/01/27 08:05:43;;;;;;;10.38;5.32;;;;;;;;;;5065908;28;20106;-77
2021/01/27 08:08:13;;;;;;;9.52;4.88;;;;;;;;;;5068281;28;20095;-78
2021/01/27 08:10:40;;;;;;;10.27;5.70;;;;;;;;;;5066334;28;20021;-75
2021/01/27 08:13:08;;;;;;;12.13;6.50;;;;;;;;;;5066304;28;20082;-76
2021/01/27 08:15:42;;;;;;;11.38;6.40;;;;;;;;;;5065733;28;20035;-79
2021/01/27 08:18:17;;;;;;;8.90;5.40;;;;;;;;;;5067363;28;20024;-77
2021/01/27 08:20:44;;;;;;;9.70;6.20;;;;;;;;;;5066152;28;20029;-75
2021/01/27 08:23:30;;;;;;;11.57;6.53;;;;;;;;;;5066057;28;20029;-77
2021/01/27 08:26:07;;;;;;;12.25;8.23;;;;;;;;;;5065962;28;20021;-75
2021/01/27 08:28:36;;;;;;;13.48;7.68;;;;;;;;;;5065579;28;20036;-75
2021/01/27 08:31:08;;;;;;;9.93;6.78;;;;;;;;;;5065062;28;20040;-76
2021/01/27 08:33:46;;;;;;;10.52;7.28;;;;;;;;;;5066006;28;20116;-76
2021/01/27 08:36:16;;;;;;;10.82;7.38;;;;;;;;;;5065110;28;20058;-79
2021/01/27 08:38:58;;;;;;;12.02;7.13;;;;;;;;;;5065522;28;20096;-78
2021/01/27 08:41:39;;;;;;;12.20;7.43;;;;;;;;;;5077049;28;20027;-76
2021/01/27 08:44:06;;;;;;;11.05;6.75;;;;;;;;;;5085923;28;20039;-77
2021/01/27 08:46:35;;;;;;;12.90;6.85;;;;;;;;;;5084872;28;20483;-76
2021/01/27 08:49:02;;;;;;;11.35;6.85;;;;;;;;;;5085114;28;20115;-73
2021/01/27 08:51:40;;;;;;;13.25;6.68;;;;;;;;;;5086892;28;20024;-76
2021/01/27 08:54:24;;;;;;;11.13;6.75;;;;;;;;;;5087048;28;20120;-75
2021/01/27 08:57:09;;;;;;;20.17;6.20;;;;;;;;;;5083465;28;20521;-76
2021/01/27 08:59:50;;;;;;;11.98;6.15;;;;;;;;;;5065712;28;20079;-74
2021/01/27 09:02:36;;;;;;;11.68;6.75;;;;;;;;;;5065007;28;20020;-74
2021/01/27 09:05:03;;;;;;;10.07;5.68;;;;;;;;;;5064611;28;20040;-76
2021/01/27 09:07:29;;;;;;;13.02;6.40;;;;;;;;;;5065533;28;20042;-75
2021/01/27 09:09:55;;;;;;;8.82;5.53;;;;;;;;;;5065611;28;20481;-74
2021/01/27 09:12:27;;;;;;;12.30;6.07;;;;;;;;;;5065198;28;20025;-73
2021/01/27 09:14:53;;;;;;;15.20;6.13;;;;;;;;;;5066454;28;20028;-73
2021/01/27 09:17:20;;;;;;;16.75;6.18;;;;;;;;;;5064860;28;20047;-75
2021/01/27 09:19:46;;;;;;;14.02;5.57;;;;;;;;;;5065477;28;20023;-79
2021/01/27 09:22:38;;;;;;;11.48;5.07;;;;;;;;;;5066915;28;20475;-75
2021/01/27 09:25:05;;;;;;;13.27;6.15;;;;;;;;;;5060750;28;20589;-76
2021/01/27 09:27:33;;;;;;;9.35;4.93;;;;;;;;;;5074625;28;20034;-80
2021/01/27 09:30:04;;;;;;;9.77;5.03;;;;;;;;;;5085343;28;20115;-82
2021/01/27 09:32:31;;;;;;;8.13;4.72;;;;;;;;;;5085516;28;20032;-76
2021/01/27 09:35:08;;;;;;;10.40;5.85;;;;;;;;;;5066313;28;20102;-78
2021/01/27 09:37:34;;;;;;;10.00;6.25;;;;;;;;;;5065503;28;20499;-75
2021/01/27 09:40:13;;;;;;;10.27;5.65;;;;;;;;;;5065403;28;20036;-75
2021/01/27 09:42:39;;;;;;;9.50;4.63;;;;;;;;;;5066993;28;20020;-79
2021/01/27 09:45:10;;;;;;;6.83;3.93;;;;;;;;;;5069241;28;20021;-79
2021/01/27 09:47:38;;;;;;;9.93;4.68;;;;;;;;;;5068960;28;20078;-75
2021/01/27 09:50:06;;;;;;;9.63;4.40;;;;;;;;;;5068719;28;20020;-78
2021/01/27 09:52:32;;;;;;;6.18;4.00;;;;;;;;;;5069793;28;20032;-75
2021/01/27 09:55:10;;;;;;;5.32;3.58;;;;;;;;;;5068450;28;20622;-76
2021/01/27 09:57:37;;;;;;;7.25;4.15;;;;;;;;;;5069984;28;20390;-79
2021/01/27 10:00:04;;;;;;;7.10;4.13;;;;;;;;;;5086389;28;20035;-81
2021/01/27 10:02:32;;;;;;;8.10;4.03;;;;;;;;;;5089371;28;20056;-79
2021/01/27 10:04:58;;;;;;;;;;;;;;;;;;5088838;28;20055;-80
2021/01/27 10:07:27;;;;;;;6.15;3.55;;;;;;;;;;5090736;28;19908;-78
2021/01/27 10:09:56;;;;;;;6.60;3.70;;;;;;;;;;5089105;28;20041;-74
2021/01/27 10:12:30;;;;;;;7.05;3.55;;;;;;;;;;5086892;28;20043;-75
2021/01/27 10:15:02;;;;;;;6.45;3.20;;;;;;;;;;5067561;28;20032;-75
2021/01/27 10:17:30;;;;;;;7.07;3.00;;;;;;;;;;5068102;28;20649;-74
2021/01/27 10:20:03;;;;;;;6.32;3.47;;;;;;;;;;5068081;28;20034;-72
2021/01/27 10:22:33;;;;;;;6.40;2.97;;;;;;;;;;5067784;28;20029;-73
2021/01/27 10:25:00;;;;;;;6.43;2.97;;;;;;;;;;5067198;28;20685;-73
2021/01/27 10:27:40;;;;;;;7.25;3.08;;;;;;;;;;5067647;28;20372;-74
2021/01/27 10:30:28;;;;;;;5.72;3.10;;;;;;;;;;5069023;28;20044;-74
2021/01/27 10:32:54;;;;;;;6.18;3.10;;;;;;;;;;5069216;28;20795;-76
2021/01/27 10:35:26;;;;;;;6.80;3.40;;;;;;;;;;5067511;28;20016;-75
2021/01/27 10:37:53;;;;;;;6.18;3.25;;;;;;;;;;5068131;28;20111;-76
2021/01/27 10:40:25;;;;;;;8.05;3.35;;;;;;;;;;5067705;28;20318;-76
2021/01/27 10:42:55;;;;;;;5.80;3.00;;;;;;;;;;5067864;28;20064;-77
2021/01/27 10:45:23;;;;;;;7.63;3.50;;;;;;;;;;5068106;28;20442;-75
2021/01/27 10:48:13;;;;;;;6.10;3.45;;;;;;;;;;5078334;28;20024;-75
2021/01/27 10:50:44;;;;;;;7.68;3.45;;;;;;;;;;5089654;28;20047;-75
2021/01/27 10:53:12;;;;;;;6.93;3.53;;;;;;;;;;5087493;28;20032;-77
2021/01/27 10:55:38;;;;;;;6.57;3.25;;;;;;;;;;5087210;28;20032;-78
2021/01/27 10:58:05;;;;;;;5.50;3.15;;;;;;;;;;5082944;28;20552;-76
2021/01/27 11:00:32;;;;;;;4.95;3.13;;;;;;;;;;5067419;28;20111;-80
2021/01/27 11:02:58;;;;;;;5.53;3.42;;;;;;;;;;5067524;28;20047;-77
2021/01/27 11:05:24;;;;;;;5.75;3.05;;;;;;;;;;5066382;28;20028;-75
2021/01/27 11:07:50;;;;;;;5.53;3.33;;;;;;;;;;5067568;28;20359;-77
2021/01/27 11:10:16;;;;;;;6.47;3.17;;;;;;;;;;5067501;28;20506;-76
2021/01/27 11:12:42;;;;;;;5.10;2.80;;;;;;;;;;5069056;28;20475;-76
2021/01/27 11:15:08;;;;;;;7.90;3.30;;;;;;;;;;5066681;28;20016;-78
2021/01/27 11:17:34;;;;;;;8.10;3.20;;;;;;;;;;5067140;28;20024;-79
2021/01/27 11:20:00;;;;;;;6.85;3.15;;;;;;;;;;5068972;28;20020;-78
2021/01/27 11:22:26;;;;;;;7.75;3.10;;;;;;;;;;5075970;28;20470;-80
2021/01/27 11:24:52;;;;;;;7.00;3.72;;;;;;;;;;5087154;28;20024;-79
2021/01/27 11:27:20;;;;;;;7.70;3.60;;;;;;;;;;5088818;28;20063;-78
2021/01/27 11:29:46;;;;;;;4.88;3.38;;;;;;;;;;5088449;28;20020;-78
2021/01/27 11:32:12;;;;;;;7.95;3.38;;;;;;;;;;5089972;28;20379;-79
2021/01/27 11:34:38;;;;;;;8.32;3.60;;;;;;;;;;5090715;28;20028;-80
2021/01/27 11:37:04;;;;;;;10.93;4.50;;;;;;;;;;5090786;28;20068;-83
2021/01/27 11:39:30;;;;;;;7.53;4.05;;;;;;;;;;5106339;28;20079;-78
2021/01/27 11:41:56;;;;;;;7.75;3.80;;;;;;;;;;5107218;28;20485;-76
2021/01/27 11:44:22;;;;;;;8.00;4.13;;;;;;;;;;5106455;28;20573;-76
2021/01/27 11:46:49;;;;;;;5.45;3.60;;;;;;;;;;5108156;28;20334;-80
2021/01/27 11:49:15;;;;;;;8.60;3.95;;;;;;;;;;5107326;28;20016;-77
2021/01/27 11:51:41;;;;;;;6.93;3.70;;;;;;;;;;5108626;28;20081;-78
2021/01/27 11:54:07;;;;;;;7.43;4.20;;;;;;;;;;5106853;28;20056;-78
2021/01/27 11:56:33;;;;;;;8.30;3.90;;;;;;;;;;5093369;28;20423;-75
2021/01/27 11:58:59;;;;;;;6.55;3.63;;;;;;;;;;5086426;28;20146;-79
2021/01/27 12:01:28;;;;;;;5.90;3.25;;;;;;;;;;5086688;28;20061;-76
2021/01/27 12:03:55;;;;;;;6.43;3.75;;;;;;;;;;5086756;28;20138;-76
2021/01/27 12:06:21;;;;;;;7.50;3.60;;;;;;;;;;5083583;28;20137;-75
2021/01/27 12:08:47;;;;;;;7.55;3.40;;;;;;;;;;5088779;28;20016;-76
2021/01/27 12:11:13;;;;;;;7.38;4.63;;;;;;;;;;5069995;28;20024;-76
2021/01/27 12:13:39;;;;;;;7.65;3.90;;;;;;;;;;5077509;28;20024;-81
2021/01/27 12:16:05;;;;;;;7.40;3.60;;;;;;;;;;5086134;28;20097;-75
2021/01/27 12:18:31;;;;;;;5.63;3.33;;;;;;;;;;5086908;28;20028;-75
2021/01/27 12:20:57;;;;;;;10.18;6.55;;;;;;;;;;5082862;28;20113;-81
2021/01/27 12:23:23;;;;;;;8.15;4.57;;;;;;;;;;5066750;28;20490;-80
2021/01/27 12:25:49;;;;;;;11.43;4.45;;;;;;;;;;5067762;28;20036;-76
2021/01/27 12:28:15;;;;;;;5.38;3.35;;;;;;;;;;5066074;28;20432;-80
2021/01/27 12:30:42;;;;;;;5.85;3.35;;;;;;;;;;5066975;28;20440;-80
2021/01/27 12:33:09;;;;;;;7.57;3.55;;;;;;;;;;5065805;28;20721;-76
2021/01/27 12:35:35;;;;;;;5.35;3.20;;;;;;;;;;5073113;28;20077;-78
2021/01/27 12:38:02;;;;;;;4.50;2.97;;;;;;;;;;5087928;28;20035;-80
2021/01/27 12:40:28;;;;;;;6.03;3.55;;;;;;;;;;5087485;28;20397;-75
2021/01/27 12:42:55;;;;;;;8.25;3.53;;;;;;;;;;5086601;28;20032;-80
2021/01/27 12:45:22;;;;;;;7.07;3.60;;;;;;;;;;5087167;28;20028;-82
2021/01/27 12:47:48;;;;;;;8.77;3.90;;;;;;;;;;5073031;28;20017;-80
2021/01/27 12:50:15;;;;;;;8.27;3.78;;;;;;;;;;5049479;28;20090;-80
2021/01/27 12:52:41;;;;;;;13.13;3.75;;;;;;;;;;5066386;28;20375;-81
2021/01/27 12:55:10;;;;;;;7.40;3.35;;;;;;;;;;5065563;28;20523;-80
2021/01/27 12:57:39;;;;;;;8.45;3.70;;;;;;;;;;5065741;28;20035;-79
2021/01/27 13:00:16;;;;;;;9.43;3.45;;;;;;;;;;5067131;28;20555;-80
2021/01/27 13:02:43;;;;;;;7.70;3.38;;;;;;;;;;5087869;28;20031;-80
2021/01/27 13:05:09;;;;;;;6.17;3.47;;;;;;;;;;5074009;28;20515;-75
2021/01/27 13:07:35;;;;;;;5.88;3.42;;;;;;;;;;5075574;28;20340;-81
2021/01/27 13:10:01;;;;;;;7.65;3.30;;;;;;;;;;5067706;28;20066;-80
2021/01/27 13:12:28;;;;;;;6.47;3.25;;;;;;;;;;5066267;28;20037;-81
2021/01/27 13:14:54;;;;;;;6.97;3.13;;;;;;;;;;5067011;28;20047;-77
2021/01/27 13:17:20;;;;;;;7.32;3.30;;;;;;;;;;5068180;28;20456;-83
2021/01/27 13:19:46;;;;;;;6.60;3.30;;;;;;;;;;5068903;28;20099;-83
2021/01/27 13:22:12;;;;;;;4.97;2.75;;;;;;;;;;5068577;28;20028;-81
2021/01/27 13:24:38;;;;;;;6.05;3.22;;;;;;;;;;5067174;28;20028;-81
2021/01/27 13:27:04;;;;;;;8.43;3.50;;;;;;;;;;5067143;28;20029;-82
2021/01/27 13:29:31;;;;;;;6.20;3.25;;;;;;;;;;5067438;28;20043;-81
2021/01/27 13:31:57;;;;;;;5.50;3.58;;;;;;;;;;5067633;28;20021;-84
2021/01/27 13:34:23;;;;;;;6.95;3.58;;;;;;;;;;5067533;28;20136;-81
2021/01/27 13:36:49;;;;;;;8.27;3.80;;;;;;;;;;5066732;28;20120;-81
2021/01/27 13:39:17;;;;;;;8.98;3.58;;;;;;;;;;5066470;28;20024;-80
2021/01/27 13:41:43;;;;;;;16.92;8.10;;;;;;;;;;5066417;28;20059;-81
2021/01/27 13:44:09;;;;;;;138.50;54.03;;;;;;;;;;5066598;28;20040;-79
2021/01/27 13:46:35;;;;;;;18.05;10.20;;;;;;;;;;5065905;28;20059;-82
2021/01/27 13:49:01;;;;;;;8.98;4.70;;;;;;;;;;5068279;28;20491;-81
2021/01/27 13:51:27;;;;;;;6.38;4.28;;;;;;;;;;5067118;28;20029;-75
2021/01/27 13:53:53;;;;;;;9.52;4.97;;;;;;;;;;5066884;28;20123;-82
2021/01/27 13:56:20;;;;;;;8.40;4.55;;;;;;;;;;5066411;28;20044;-81
2021/01/27 13:58:46;;;;;;;8.40;4.68;;;;;;;;;;5066852;28;20052;-79
2021/01/27 14:01:12;;;;;;;6.68;3.55;;;;;;;;;;5066964;28;20060;-80
2021/01/27 14:03:38;;;;;;;6.10;3.28;;;;;;;;;;5067032;28;20031;-81
2021/01/27 14:06:04;;;;;;;8.02;4.22;;;;;;;;;;5064495;28;20035;-81
2021/01/27 14:08:31;;;;;;;8.52;4.22;;;;;;;;;;5065313;28;20024;-81
2021/01/27 14:10:57;;;;;;;6.82;3.85;;;;;;;;;;5066021;28;20025;-78
2021/01/27 14:13:23;;;;;;;7.57;3.95;;;;;;;;;;5065016;28;20025;-80
2021/01/27 14:15:49;;;;;;;8.85;3.90;;;;;;;;;;5064177;28;20418;-78
2021/01/27 14:18:15;;;;;;;9.68;5.18;;;;;;;;;;5065201;28;20494;-80
2021/01/27 14:20:41;;;;;;;8.32;4.40;;;;;;;;;;5066345;28;20031;-79
2021/01/27 14:23:07;;;;;;;7.10;4.65;;;;;;;;;;5065855;28;20029;-77
2021/01/27 14:25:33;;;;;;;7.30;5.30;;;;;;;;;;5063995;28;20544;-79
2021/01/27 14:27:59;;;;;;;7.70;4.78;;;;;;;;;;5064534;28;20059;-81
2021/01/27 14:30:30;;;;;;;8.25;5.07;;;;;;;;;;5067527;28;20043;-80
2021/01/27 14:32:56;;;;;;;11.30;4.70;;;;;;;;;;5069692;28;20031;-81
2021/01/27 14:35:23;;;;;;;9.45;4.47;;;;;;;;;;5067490;28;20427;-79
2021/01/27 14:37:49;;;;;;;8.73;5.30;;;;;;;;;;5068543;28;20024;-78
2021/01/27 14:40:16;;;;;;;10.93;5.47;;;;;;;;;;5067982;28;20340;-82
2021/01/27 14:42:42;;;;;;;10.43;5.85;;;;;;;;;;5068165;28;20025;-78
2021/01/27 14:45:10;;;;;;;10.45;5.50;;;;;;;;;;5065848;28;20078;-80
2021/01/27 14:47:36;;;;;;;11.00;5.80;;;;;;;;;;5068788;28;20031;-80
2021/01/27 14:50:02;;;;;;;8.98;5.80;;;;;;;;;;5070001;28;20017;-81